Time;durP1;ratioP1;P1;durP2;ratioP2;P2;SDS_P1;SDS_P2;PMS_P1;PMS_P2;Temp;Humidity;BMP_temperature;BMP_pressure;BME280_temperature;BME280_humidity;BME280_pressure;Samples;Min_cycle;Max_cycle;Signal;HPM_P1;HPM_P2
2022/02/11 00:02:14;;;;;;;1.55;1.45;;;;;;;;;;5052775;28;20197;-80
2022/02/11 00:05:02;;;;;;;1.60;1.50;;;;;;;;;;5052731;28;20228;-79
2022/02/11 00:07:31;;;;;;;3.15;1.73;;;;;;;;;;5052934;28;20739;-80
2022/02/11 00:09:58;;;;;;;1.50;1.40;;;;;;;;;;5052467;28;20202;-81
2022/02/11 00:12:27;;;;;;;1.98;1.70;;;;;;;;;;5052401;28;20213;-80
2022/02/11 00:15:03;;;;;;;2.25;1.80;;;;;;;;;;5052634;28;20232;-81
2022/02/11 00:17:31;;;;;;;1.30;1.20;;;;;;;;;;5052688;28;20227;-80
2022/02/11 00:19:59;;;;;;;1.50;1.40;;;;;;;;;;5052645;28;20212;-79
2022/02/11 00:22:27;;;;;;;1.88;1.77;;;;;;;;;;5052315;28;20259;-80
2022/02/11 00:24:55;;;;;;;1.50;1.40;;;;;;;;;;5052427;28;20201;-79
2022/02/11 00:30:53;;;;;;;1.92;1.60;;;;;;;;;;5025103;28;20212;-81
2022/02/11 00:33:25;;;;;;;1.90;1.48;;;;;;;;;;5032209;28;20218;-79
2022/02/11 00:35:56;;;;;;;1.88;1.77;;;;;;;;;;5031577;28;20222;-81
2022/02/11 00:38:33;;;;;;;1.65;1.55;;;;;;;;;;5032679;28;20222;-80
2022/02/11 00:47:14;;;;;;;2.72;2.40;;;;;;;;;;5032547;28;20217;-80
2022/02/11 01:03:33;;;;;;;1.60;1.50;;;;;;;;;;5032347;28;20204;-80
2022/02/11 01:06:01;;;;;;;2.05;1.85;;;;;;;;;;5032281;28;20226;-79
2022/02/11 01:08:28;;;;;;;2.10;1.90;;;;;;;;;;5031987;28;20695;-81
2022/02/11 01:10:58;;;;;;;2.15;1.92;;;;;;;;;;5031785;28;20199;-79
2022/02/11 01:13:26;;;;;;;1.75;1.65;;;;;;;;;;5031885;28;20202;-79
2022/02/11 01:16:00;;;;;;;1.60;1.50;;;;;;;;;;5032263;28;20604;-80
2022/02/11 01:18:28;;;;;;;1.67;1.58;;;;;;;;;;5032171;28;20223;-80
2022/02/11 01:21:00;;;;;;;1.73;1.58;;;;;;;;;;5031861;28;20202;-80
2022/02/11 01:23:43;;;;;;;1.92;1.73;;;;;;;;;;5032116;28;20210;-80
2022/02/11 01:26:24;;;;;;;2.08;1.52;;;;;;;;;;5032099;28;20226;-80
2022/02/11 01:31:49;;;;;;;1.20;1.10;;;;;;;;;;5031536;28;20230;-79
2022/02/11 01:37:18;;;;;;;1.95;1.70;;;;;;;;;;5031589;28;20285;-80
2022/02/11 01:45:47;;;;;;;1.15;1.00;;;;;;;;;;5035372;28;20224;-79
2022/02/11 01:48:48;;;;;;;0.88;0.82;;;;;;;;;;5035380;28;20198;-80
2022/02/11 01:51:30;;;;;;;1.02;1.00;;;;;;;;;;5035659;28;20631;-80
2022/02/11 01:54:05;;;;;;;0.77;0.77;;;;;;;;;;5035089;28;20248;-80
2022/02/11 01:56:42;;;;;;;0.80;0.80;;;;;;;;;;5035180;28;20226;-80
2022/02/11 02:10:45;;;;;;;0.95;0.80;;;;;;;;;;5034979;28;20194;-80
2022/02/11 02:13:44;;;;;;;1.50;1.40;;;;;;;;;;5034665;28;20203;-80
2022/02/11 02:19:57;;;;;;;2.30;1.75;;;;;;;;;;5034789;28;20572;-79
2022/02/11 02:22:35;;;;;;;1.92;1.55;;;;;;;;;;5034415;28;20666;-80
2022/02/11 02:25:09;;;;;;;2.15;1.65;;;;;;;;;;5034974;28;20652;-79
2022/02/11 02:27:49;;;;;;;3.08;2.25;;;;;;;;;;5034610;28;20206;-79
2022/02/11 02:36:22;;;;;;;1.48;1.25;;;;;;;;;;5034554;28;20638;-80
2022/02/11 02:58:26;;;;;;;2.38;1.63;;;;;;;;;;5027528;28;20233;-80
2022/02/11 03:01:27;;;;;;;1.40;1.30;;;;;;;;;;5033827;28;20260;-79
2022/02/11 03:15:23;;;;;;;2.05;1.75;;;;;;;;;;5033906;28;20469;-81
2022/02/11 03:31:32;;;;;;;2.92;2.13;;;;;;;;;;5033722;28;20206;-80
2022/02/11 03:34:46;;;;;;;1.98;1.85;;;;;;;;;;5034108;28;20704;-79
2022/02/11 03:51:25;;;;;;;2.00;1.85;;;;;;;;;;5033392;28;20206;-80
2022/02/11 03:54:20;;;;;;;1.52;1.42;;;;;;;;;;5032836;28;20225;-80
2022/02/11 04:22:23;;;;;;;1.83;1.42;;;;;;;;;;5032950;28;20202;-79
2022/02/11 04:53:23;;;;;;;1.73;1.63;;;;;;;;;;5031926;28;20272;-81
2022/02/11 04:55:44;;;;;;;1.73;1.63;;;;;;;;;;5032145;28;20308;-80
2022/02/11 05:00:56;;;;;;;4.72;1.75;;;;;;;;;;5032099;28;20251;-80
2022/02/11 05:03:23;;;;;;;1.75;1.65;;;;;;;;;;5031787;28;20202;-80
2022/02/11 05:05:51;;;;;;;2.08;1.75;;;;;;;;;;5032244;28;20225;-80
2022/02/11 05:08:19;;;;;;;1.42;1.33;;;;;;;;;;5032289;28;20305;-79
2022/02/11 05:10:49;;;;;;;1.75;1.65;;;;;;;;;;5032408;28;20232;-80
2022/02/11 05:13:17;;;;;;;2.55;2.15;;;;;;;;;;5032013;28;20217;-78
2022/02/11 05:15:45;;;;;;;2.60;2.38;;;;;;;;;;5034745;28;20228;-79
2022/02/11 05:18:13;;;;;;;1.48;1.38;;;;;;;;;;5035960;28;20678;-79
2022/02/11 05:20:42;;;;;;;1.80;1.70;;;;;;;;;;5035667;28;20593;-80
2022/02/11 05:23:12;;;;;;;2.25;1.88;;;;;;;;;;5035836;28;20202;-80
2022/02/11 05:25:41;;;;;;;1.85;1.75;;;;;;;;;;5036069;28;20222;-79
2022/02/11 05:28:11;;;;;;;1.75;1.65;;;;;;;;;;5035762;28;20203;-79
2022/02/11 05:30:39;;;;;;;2.17;1.98;;;;;;;;;;5035838;28;20587;-80
2022/02/11 05:33:08;;;;;;;1.63;1.33;;;;;;;;;;5035456;28;20218;-80
2022/02/11 05:35:37;;;;;;;1.85;1.50;;;;;;;;;;5035793;28;20252;-79
2022/02/11 05:38:04;;;;;;;1.67;1.58;;;;;;;;;;5036018;28;20206;-80
2022/02/11 05:40:32;;;;;;;1.50;1.40;;;;;;;;;;5035051;28;20222;-80
2022/02/11 05:42:59;;;;;;;1.92;1.75;;;;;;;;;;5035160;28;20198;-80
2022/02/11 05:45:28;;;;;;;2.17;1.67;;;;;;;;;;5035218;28;20722;-80
2022/02/11 05:47:55;;;;;;;2.15;1.95;;;;;;;;;;5035328;28;20595;-79
2022/02/11 05:50:22;;;;;;;3.83;2.22;;;;;;;;;;5035580;28;20210;-79
2022/02/11 05:52:50;;;;;;;1.83;1.73;;;;;;;;;;5034636;28;20643;-79
2022/02/11 05:55:17;;;;;;;2.25;2.10;;;;;;;;;;5034783;28;20218;-79
2022/02/11 05:57:44;;;;;;;1.40;1.30;;;;;;;;;;5034908;28;20249;-79
2022/02/11 06:00:13;;;;;;;3.50;2.40;;;;;;;;;;5034721;28;20226;-79
2022/02/11 06:02:41;;;;;;;2.47;1.98;;;;;;;;;;5035125;28;20264;-80
2022/02/11 06:05:09;;;;;;;1.75;1.38;;;;;;;;;;5035492;28;20202;-80
2022/02/11 06:07:37;;;;;;;2.05;1.90;;;;;;;;;;5035448;28;20198;-80
2022/02/11 06:10:05;;;;;;;2.70;2.50;;;;;;;;;;5034957;28;20245;-79
2022/02/11 06:12:33;;;;;;;2.65;2.45;;;;;;;;;;5034470;28;20210;-80
2022/02/11 06:15:00;;;;;;;3.22;2.33;;;;;;;;;;5039263;28;20203;-80
2022/02/11 06:17:27;;;;;;;5.20;3.08;;;;;;;;;;5050895;28;20198;-79
2022/02/11 06:20:00;;;;;;;3.03;2.83;;;;;;;;;;5055419;28;20233;-79
2022/02/11 06:22:28;;;;;;;2.17;2.08;;;;;;;;;;5042964;28;20209;-80
2022/02/11 06:24:55;;;;;;;4.88;2.40;;;;;;;;;;5034677;28;20202;-79
2022/02/11 06:27:22;;;;;;;4.50;2.70;;;;;;;;;;5034654;28;20268;-80
2022/02/11 06:29:50;;;;;;;4.18;2.88;;;;;;;;;;5038030;28;20217;-82
2022/02/11 06:32:17;;;;;;;2.95;2.40;;;;;;;;;;5053853;28;20213;-80
2022/02/11 06:34:44;;;;;;;3.28;2.90;;;;;;;;;;5042873;28;20199;-79
2022/02/11 06:37:13;;;;;;;3.17;2.70;;;;;;;;;;5046255;28;20275;-81
2022/02/11 06:39:40;;;;;;;2.67;2.47;;;;;;;;;;5040454;28;20213;-79
2022/02/11 06:42:08;;;;;;;4.57;3.72;;;;;;;;;;5034644;28;20213;-79
2022/02/11 06:44:35;;;;;;;2.85;2.53;;;;;;;;;;5034909;28;20218;-83
2022/02/11 06:47:02;;;;;;;4.80;2.13;;;;;;;;;;5035058;28;20234;-80
2022/02/11 06:49:31;;;;;;;2.97;2.60;;;;;;;;;;5037145;28;20209;-81
2022/02/11 06:51:58;;;;;;;3.30;3.00;;;;;;;;;;5052675;28;20218;-80
2022/02/11 06:54:27;;;;;;;6.80;3.58;;;;;;;;;;5037299;28;20213;-80
2022/02/11 06:56:55;;;;;;;4.28;2.67;;;;;;;;;;5038370;28;20353;-79
2022/02/11 06:59:22;;;;;;;3.05;2.75;;;;;;;;;;5043031;28;20205;-80
2022/02/11 07:01:49;;;;;;;3.30;2.97;;;;;;;;;;5060231;28;20226;-80
2022/02/11 07:04:17;;;;;;;3.22;2.65;;;;;;;;;;5057033;28;20202;-80
2022/02/11 07:06:44;;;;;;;2.97;2.55;;;;;;;;;;5057125;28;20249;-80
2022/02/11 07:09:12;;;;;;;3.67;2.47;;;;;;;;;;5058989;28;20228;-83
2022/02/11 07:11:40;;;;;;;6.97;3.40;;;;;;;;;;5040937;28;20654;-79
2022/02/11 07:14:08;;;;;;;3.20;2.90;;;;;;;;;;5039965;28;20252;-80
2022/02/11 07:16:35;;;;;;;3.88;3.53;;;;;;;;;;5038436;28;20274;-81
2022/02/11 07:19:02;;;;;;;3.50;3.20;;;;;;;;;;5038155;28;20206;-80
2022/02/11 07:21:30;;;;;;;3.60;2.92;;;;;;;;;;5037337;28;20226;-80
2022/02/11 07:23:57;;;;;;;2.10;1.90;;;;;;;;;;5037916;28;20615;-80
2022/02/11 07:26:24;;;;;;;3.25;2.60;;;;;;;;;;5038007;28;20233;-80
2022/02/11 07:28:53;;;;;;;4.93;2.83;;;;;;;;;;5038283;28;20654;-80
2022/02/11 07:31:20;;;;;;;3.67;3.33;;;;;;;;;;5052484;28;20611;-80
2022/02/11 07:33:48;;;;;;;3.08;2.85;;;;;;;;;;5056672;28;20247;-79
2022/02/11 07:36:15;;;;;;;2.97;1.98;;;;;;;;;;5038944;28;20259;-81
2022/02/11 07:38:42;;;;;;;3.17;2.60;;;;;;;;;;5036830;28;20206;-81
2022/02/11 07:41:10;;;;;;;4.10;3.80;;;;;;;;;;5038170;28;20226;-81
2022/02/11 07:43:40;;;;;;;3.58;2.78;;;;;;;;;;5040404;28;20273;-80
2022/02/11 07:46:08;;;;;;;5.78;3.53;;;;;;;;;;5040354;28;20234;-82
2022/02/11 07:48:36;;;;;;;3.42;3.05;;;;;;;;;;5041233;28;20213;-82
2022/02/11 07:51:03;;;;;;;3.78;2.80;;;;;;;;;;5042418;28;20206;-82
2022/02/11 07:53:34;;;;;;;3.33;3.00;;;;;;;;;;5041776;28;20267;-81
2022/02/11 07:56:01;;;;;;;2.67;2.47;;;;;;;;;;5039270;28;20237;-81
2022/02/11 07:58:29;;;;;;;3.42;2.78;;;;;;;;;;5039532;28;20210;-81
2022/02/11 08:00:57;;;;;;;3.55;2.55;;;;;;;;;;5046926;28;20706;-81
2022/02/11 08:03:26;;;;;;;3.22;3.00;;;;;;;;;;5040294;28;20214;-80
2022/02/11 08:05:53;;;;;;;2.42;2.22;;;;;;;;;;5053201;28;20637;-81
2022/02/11 08:08:23;;;;;;;3.05;2.30;;;;;;;;;;5040055;28;20213;-80
2022/02/11 08:10:51;;;;;;;3.03;2.78;;;;;;;;;;5044705;28;20199;-80
2022/02/11 08:13:18;;;;;;;2.90;2.28;;;;;;;;;;5041112;28;20264;-80
2022/02/11 08:15:45;;;;;;;2.35;2.15;;;;;;;;;;5041583;28;20233;-81
2022/02/11 08:18:13;;;;;;;2.53;2.33;;;;;;;;;;5041131;28;20218;-81
2022/02/11 08:20:41;;;;;;;2.40;2.20;;;;;;;;;;5040967;28;20214;-81
2022/02/11 08:23:09;;;;;;;3.70;2.63;;;;;;;;;;5040450;28;20573;-80
2022/02/11 08:25:36;;;;;;;2.25;1.80;;;;;;;;;;5041026;28;20732;-81
2022/02/11 08:28:04;;;;;;;5.00;2.35;;;;;;;;;;5041369;28;20225;-81
2022/02/11 08:30:31;;;;;;;2.38;1.98;;;;;;;;;;5049619;28;20263;-81
2022/02/11 08:32:59;;;;;;;2.17;1.98;;;;;;;;;;5060253;28;20213;-81
2022/02/11 08:35:26;;;;;;;2.72;2.53;;;;;;;;;;5051520;28;20230;-80
2022/02/11 08:37:54;;;;;;;2.42;2.05;;;;;;;;;;5041083;28;20210;-81
2022/02/11 08:40:22;;;;;;;2.88;2.13;;;;;;;;;;5040186;28;20206;-80
2022/02/11 08:42:51;;;;;;;2.25;1.98;;;;;;;;;;5040142;28;20284;-81
2022/02/11 08:45:18;;;;;;;2.47;2.28;;;;;;;;;;5041633;28;20284;-81
2022/02/11 08:47:45;;;;;;;4.82;2.25;;;;;;;;;;5040548;28;20214;-82
2022/02/11 08:50:18;;;;;;;5.53;2.70;;;;;;;;;;5043444;28;20217;-81
2022/02/11 08:52:45;;;;;;;2.80;1.85;;;;;;;;;;5044977;28;20210;-81
2022/02/11 08:55:19;;;;;;;2.78;2.13;;;;;;;;;;5045140;28;20217;-82
2022/02/11 08:57:47;;;;;;;4.38;3.05;;;;;;;;;;5046154;28;20265;-83
2022/02/11 09:00:17;;;;;;;3.08;2.00;;;;;;;;;;5056833;28;20205;-82
2022/02/11 09:02:44;;;;;;;2.67;2.35;;;;;;;;;;5063761;28;20261;-83
2022/02/11 09:05:12;;;;;;;1.98;1.77;;;;;;;;;;5054241;28;20206;-82
2022/02/11 09:07:39;;;;;;;3.25;2.28;;;;;;;;;;5045690;28;20210;-82
2022/02/11 09:10:07;;;;;;;4.30;2.17;;;;;;;;;;5048960;28;20205;-83
2022/02/11 09:12:36;;;;;;;3.90;1.80;;;;;;;;;;5046144;28;20202;-82
2022/02/11 09:15:05;;;;;;;2.55;2.25;;;;;;;;;;5046373;28;20210;-81
2022/02/11 09:17:32;;;;;;;2.42;2.20;;;;;;;;;;5045703;28;20206;-82
2022/02/11 09:19:59;;;;;;;2.63;2.08;;;;;;;;;;5045494;28;20639;-81
2022/02/11 09:22:28;;;;;;;3.10;1.85;;;;;;;;;;5045693;28;20257;-82
2022/02/11 09:24:55;;;;;;;4.72;1.88;;;;;;;;;;5045289;28;20206;-85
2022/02/11 09:27:23;;;;;;;2.70;1.92;;;;;;;;;;5045140;28;20234;-83
2022/02/11 09:29:53;;;;;;;4.55;2.33;;;;;;;;;;5050404;28;20206;-81
2022/02/11 09:32:20;;;;;;;2.35;1.73;;;;;;;;;;5071194;28;20221;-80
2022/02/11 09:34:47;;;;;;;4.50;1.90;;;;;;;;;;5069108;28;20490;-82
2022/02/11 09:37:15;;;;;;;2.85;1.20;;;;;;;;;;5054421;28;20295;-83
2022/02/11 09:39:42;;;;;;;5.10;1.58;;;;;;;;;;5049139;28;20580;-83
2022/02/11 09:42:10;;;;;;;2.80;1.77;;;;;;;;;;5047528;28;20230;-83
2022/02/11 09:44:38;;;;;;;1.83;1.50;;;;;;;;;;5048208;28;20273;-83
2022/02/11 09:47:08;;;;;;;2.70;1.58;;;;;;;;;;5046670;28;20226;-83
2022/02/11 09:49:35;;;;;;;4.65;2.05;;;;;;;;;;5046763;28;20651;-83
2022/02/11 09:52:05;;;;;;;4.40;2.83;;;;;;;;;;5045618;28;20237;-83
2022/02/11 09:54:33;;;;;;;3.08;1.90;;;;;;;;;;5045208;28;20277;-84
2022/02/11 09:57:01;;;;;;;3.47;1.40;;;;;;;;;;5045814;28;20222;-83
2022/02/11 09:59:28;;;;;;;5.28;2.00;;;;;;;;;;5049598;28;20671;-82
2022/02/11 10:01:56;;;;;;;1.63;1.40;;;;;;;;;;5065671;28;20263;-84
2022/02/11 10:04:25;;;;;;;2.20;1.40;;;;;;;;;;5053178;28;20202;-83
2022/02/11 10:06:53;;;;;;;3.22;1.40;;;;;;;;;;5057223;28;20226;-83
2022/02/11 10:09:22;;;;;;;4.10;1.40;;;;;;;;;;5046263;28;20206;-81
2022/02/11 10:11:51;;;;;;;3.08;1.67;;;;;;;;;;5045866;28;20240;-81
2022/02/11 10:14:27;;;;;;;5.00;1.52;;;;;;;;;;5045437;28;20649;-83
2022/02/11 10:17:01;;;;;;;1.75;1.52;;;;;;;;;;5044031;28;20228;-82
2022/02/11 10:19:46;;;;;;;1.90;1.40;;;;;;;;;;5050833;28;20202;-82
2022/02/11 10:22:17;;;;;;;2.13;1.65;;;;;;;;;;5044480;28;20686;-82
2022/02/11 10:24:44;;;;;;;4.95;2.00;;;;;;;;;;5046206;28;20210;-82
2022/02/11 10:27:33;;;;;;;3.50;2.20;;;;;;;;;;5045836;28;20222;-84
2022/02/11 10:30:03;;;;;;;3.13;1.60;;;;;;;;;;5050589;28;20217;-84
2022/02/11 10:32:44;;;;;;;2.10;1.52;;;;;;;;;;5064560;28;20728;-84
2022/02/11 10:35:14;;;;;;;4.07;1.92;;;;;;;;;;5060065;28;20229;-83
2022/02/11 10:38:08;;;;;;;1.92;1.58;;;;;;;;;;5046263;28;20213;-83
2022/02/11 10:40:37;;;;;;;1.65;1.15;;;;;;;;;;5045690;28;20210;-83
2022/02/11 10:43:05;;;;;;;2.08;1.33;;;;;;;;;;5044463;28;20594;-85
2022/02/11 10:45:37;;;;;;;3.05;1.30;;;;;;;;;;5044849;28;20660;-86
2022/02/11 10:48:15;;;;;;;3.00;1.48;;;;;;;;;;5045584;28;20724;-86
2022/02/11 10:50:51;;;;;;;2.55;1.48;;;;;;;;;;5045381;28;20206;-84
2022/02/11 10:53:28;;;;;;;3.47;1.73;;;;;;;;;;5043958;28;20212;-85
2022/02/11 10:55:56;;;;;;;2.15;1.27;;;;;;;;;;5047267;28;20690;-82
2022/02/11 10:58:25;;;;;;;3.13;1.65;;;;;;;;;;5064272;28;20293;-83
2022/02/11 11:00:53;;;;;;;3.83;1.30;;;;;;;;;;5059079;28;20201;-83
2022/02/11 11:03:20;;;;;;;4.07;2.47;;;;;;;;;;5044122;28;20222;-82
2022/02/11 11:05:49;;;;;;;1.73;1.13;;;;;;;;;;5058075;28;20229;-84
2022/02/11 11:08:16;;;;;;;3.53;1.33;;;;;;;;;;5043413;28;20210;-83
2022/02/11 11:10:46;;;;;;;3.03;1.30;;;;;;;;;;5044660;28;20218;-82
2022/02/11 11:13:15;;;;;;;3.55;1.40;;;;;;;;;;5043543;28;20579;-83
2022/02/11 11:15:44;;;;;;;4.05;2.05;;;;;;;;;;5043763;28;20234;-82
2022/02/11 11:18:13;;;;;;;3.05;1.85;;;;;;;;;;5040805;28;20207;-83
2022/02/11 11:20:41;;;;;;;3.05;1.50;;;;;;;;;;5041697;28;20225;-82
2022/02/11 11:23:23;;;;;;;4.90;2.95;;;;;;;;;;5040237;28;20241;-81
2022/02/11 11:25:52;;;;;;;5.72;2.65;;;;;;;;;;5041094;28;20730;-83
2022/02/11 11:28:42;;;;;;;4.95;3.28;;;;;;;;;;5041435;28;20233;-85
2022/02/11 11:31:18;;;;;;;5.25;1.80;;;;;;;;;;5060546;28;20260;-83
2022/02/11 11:33:46;;;;;;;2.22;1.48;;;;;;;;;;5041525;28;20228;-82
2022/02/11 11:36:16;;;;;;;5.65;1.73;;;;;;;;;;5055793;28;20229;-84
2022/02/11 11:38:57;;;;;;;2.80;1.48;;;;;;;;;;5043081;28;20212;-84
2022/02/11 11:41:26;;;;;;;3.08;1.50;;;;;;;;;;5043033;28;20292;-83
2022/02/11 11:43:56;;;;;;;4.75;1.75;;;;;;;;;;5039827;28;20233;-84
2022/02/11 11:46:30;;;;;;;6.63;1.73;;;;;;;;;;5040141;28;20731;-84
2022/02/11 11:49:00;;;;;;;4.28;3.08;;;;;;;;;;5039866;28;20558;-84
2022/02/11 11:51:29;;;;;;;9.80;3.22;;;;;;;;;;5039276;28;20241;-83
2022/02/11 11:54:24;;;;;;;2.45;1.60;;;;;;;;;;5038334;28;20209;-84
2022/02/11 11:56:57;;;;;;;4.20;2.03;;;;;;;;;;5039276;28;20226;-82
2022/02/11 11:59:28;;;;;;;5.82;2.20;;;;;;;;;;5039087;28;20206;-83
2022/02/11 12:02:00;;;;;;;2.75;2.13;;;;;;;;;;5056896;28;20262;-82
2022/02/11 12:04:29;;;;;;;3.38;1.83;;;;;;;;;;5055916;28;20229;-82
2022/02/11 12:06:59;;;;;;;3.33;1.60;;;;;;;;;;5039333;28;20246;-84
2022/02/11 12:09:29;;;;;;;2.97;1.42;;;;;;;;;;5039123;28;20210;-84
2022/02/11 12:11:59;;;;;;;2.15;1.40;;;;;;;;;;5037583;28;20217;-83
2022/02/11 12:14:28;;;;;;;2.72;1.58;;;;;;;;;;5038706;28;20197;-85
2022/02/11 12:16:56;;;;;;;2.22;1.58;;;;;;;;;;5039323;28;20226;-85
2022/02/11 12:19:24;;;;;;;3.38;1.17;;;;;;;;;;5038021;28;20206;-85
2022/02/11 12:21:51;;;;;;;2.72;1.45;;;;;;;;;;5039830;28;20206;-83
2022/02/11 12:27:23;;;;;;;3.05;1.75;;;;;;;;;;5040362;28;20299;-84
2022/02/11 12:29:53;;;;;;;2.78;1.25;;;;;;;;;;5047308;28;20218;-83
2022/02/11 12:32:23;;;;;;;2.67;1.55;;;;;;;;;;5059122;28;20229;-84
2022/02/11 12:34:57;;;;;;;5.38;2.47;;;;;;;;;;5056539;28;20202;-82
2022/02/11 12:37:27;;;;;;;4.57;1.58;;;;;;;;;;5039493;28;20210;-85
2022/02/11 12:40:05;;;;;;;1.48;1.23;;;;;;;;;;5039107;28;20206;-82
2022/02/11 12:42:35;;;;;;;1.63;1.10;;;;;;;;;;5039755;28;20283;-82
2022/02/11 12:45:03;;;;;;;4.38;2.05;;;;;;;;;;5039862;28;20232;-83
2022/02/11 12:47:33;;;;;;;2.45;1.38;;;;;;;;;;5039294;28;20724;-83
2022/02/11 12:50:01;;;;;;;2.28;1.58;;;;;;;;;;5039088;28;20706;-82
2022/02/11 12:52:33;;;;;;;5.93;2.88;;;;;;;;;;5038365;28;20210;-82
2022/02/11 12:55:14;;;;;;;3.83;1.30;;;;;;;;;;5041128;28;20202;-82
2022/02/11 12:57:45;;;;;;;3.90;2.05;;;;;;;;;;5037344;28;20296;-83
2022/02/11 13:00:20;;;;;;;2.70;1.90;;;;;;;;;;5045414;28;20205;-82
2022/02/11 13:02:50;;;;;;;3.15;1.48;;;;;;;;;;5057253;28;20205;-82
2022/02/11 13:05:20;;;;;;;3.65;1.70;;;;;;;;;;5049113;28;20234;-82
2022/02/11 13:07:50;;;;;;;2.45;1.23;;;;;;;;;;5038267;28;20558;-83
2022/02/11 13:10:23;;;;;;;3.78;1.60;;;;;;;;;;5039288;28;20210;-83
2022/02/11 13:12:54;;;;;;;2.40;1.50;;;;;;;;;;5038317;28;20222;-82
2022/02/11 13:15:24;;;;;;;2.05;1.52;;;;;;;;;;5037786;28;20222;-84
2022/02/11 13:17:51;;;;;;;2.95;1.55;;;;;;;;;;5037657;28;20241;-80
2022/02/11 13:20:21;;;;;;;5.32;1.92;;;;;;;;;;5037940;28;20269;-83
2022/02/11 13:22:50;;;;;;;2.25;1.30;;;;;;;;;;5037955;28;20206;-81
2022/02/11 13:25:19;;;;;;;2.50;1.27;;;;;;;;;;5038653;28;20234;-83
2022/02/11 13:27:52;;;;;;;3.53;2.17;;;;;;;;;;5039264;28;20203;-83
2022/02/11 13:30:31;;;;;;;1.60;1.50;;;;;;;;;;5045759;28;20284;-81
2022/02/11 13:33:00;;;;;;;4.32;2.28;;;;;;;;;;5057975;28;20214;-82
2022/02/11 13:35:28;;;;;;;2.95;1.80;;;;;;;;;;5045927;28;20232;-82
2022/02/11 13:38:01;;;;;;;4.38;1.45;;;;;;;;;;5042905;28;20206;-81
2022/02/11 13:40:31;;;;;;;2.58;1.25;;;;;;;;;;5044463;28;20206;-83
2022/02/11 13:43:05;;;;;;;5.30;2.13;;;;;;;;;;5043794;28;20241;-82
2022/02/11 13:45:51;;;;;;;4.53;2.75;;;;;;;;;;5043279;28;20235;-82
2022/02/11 13:48:20;;;;;;;4.60;1.90;;;;;;;;;;5042919;28;20212;-85
2022/02/11 13:51:05;;;;;;;2.67;1.30;;;;;;;;;;5043128;28;20202;-81
2022/02/11 13:53:39;;;;;;;3.83;1.20;;;;;;;;;;5042822;28;20217;-82
2022/02/11 13:56:09;;;;;;;4.65;2.08;;;;;;;;;;5045889;28;20226;-82
2022/02/11 13:58:38;;;;;;;3.80;1.50;;;;;;;;;;5042344;28;20206;-84
2022/02/11 14:01:26;;;;;;;2.83;1.30;;;;;;;;;;5057723;28;20228;-82
2022/02/11 14:03:59;;;;;;;4.78;1.25;;;;;;;;;;5059811;28;20271;-81
2022/02/11 14:06:28;;;;;;;3.22;1.65;;;;;;;;;;5041380;28;20261;-82
2022/02/11 14:08:56;;;;;;;5.22;1.70;;;;;;;;;;5041061;28;20248;-82
2022/02/11 14:11:23;;;;;;;2.75;1.40;;;;;;;;;;5041773;28;20206;-82
2022/02/11 14:13:52;;;;;;;2.15;1.30;;;;;;;;;;5040271;28;20210;-82
2022/02/11 14:16:20;;;;;;;2.30;1.60;;;;;;;;;;5040955;28;20222;-82
2022/02/11 14:18:48;;;;;;;5.53;2.05;;;;;;;;;;5041237;28;20211;-82
2022/02/11 14:21:18;;;;;;;4.07;1.50;;;;;;;;;;5041131;28;20207;-82
2022/02/11 14:23:46;;;;;;;4.95;1.50;;;;;;;;;;5041417;28;20206;-81
2022/02/11 14:26:13;;;;;;;1.63;1.25;;;;;;;;;;5040538;28;20230;-82
2022/02/11 14:28:40;;;;;;;3.35;1.73;;;;;;;;;;5040623;28;20615;-81
2022/02/11 14:31:09;;;;;;;2.30;1.20;;;;;;;;;;5057922;28;20236;-82
2022/02/11 14:33:36;;;;;;;2.05;1.23;;;;;;;;;;5059918;28;20206;-81
2022/02/11 14:36:04;;;;;;;1.52;0.98;;;;;;;;;;5048906;28;20230;-81
2022/02/11 14:38:31;;;;;;;2.83;1.58;;;;;;;;;;5040620;28;20213;-80
2022/02/11 14:43:43;;;;;;;3.88;1.48;;;;;;;;;;5039790;28;20297;-82
2022/02/11 14:46:12;;;;;;;2.35;0.90;;;;;;;;;;5060980;28;20236;-80
2022/02/11 14:48:40;;;;;;;6.28;3.47;;;;;;;;;;5041308;28;20210;-81
2022/02/11 14:51:08;;;;;;;8.38;4.40;;;;;;;;;;5060377;28;20216;-82
2022/02/11 14:53:35;;;;;;;3.40;2.50;;;;;;;;;;5044694;28;20206;-81
2022/02/11 14:56:04;;;;;;;4.43;2.33;;;;;;;;;;5044660;28;20218;-81
2022/02/11 14:58:32;;;;;;;9.75;3.65;;;;;;;;;;5040449;28;20202;-82
2022/02/11 15:00:59;;;;;;;3.20;1.45;;;;;;;;;;5058159;28;20240;-84
2022/02/11 15:03:28;;;;;;;3.47;1.67;;;;;;;;;;5044168;28;20584;-82
2022/02/11 15:05:55;;;;;;;1.55;1.52;;;;;;;;;;5056988;28;20233;-81
2022/02/11 15:08:22;;;;;;;4.43;1.30;;;;;;;;;;5042361;28;20221;-82
2022/02/11 15:10:50;;;;;;;2.25;1.35;;;;;;;;;;5040020;28;20210;-83
2022/02/11 15:13:17;;;;;;;1.95;1.20;;;;;;;;;;5040170;28;20206;-82
2022/02/11 15:15:44;;;;;;;3.60;1.83;;;;;;;;;;5059675;28;20607;-81
2022/02/11 15:18:12;;;;;;;4.63;1.83;;;;;;;;;;5061179;28;20217;-82
2022/02/11 15:20:43;;;;;;;3.13;1.30;;;;;;;;;;5061611;28;20208;-83
2022/02/11 15:23:12;;;;;;;1.65;1.52;;;;;;;;;;5061669;28;20355;-84
2022/02/11 15:25:39;;;;;;;1.75;1.33;;;;;;;;;;5041887;28;20230;-84
2022/02/11 15:28:07;;;;;;;4.28;1.90;;;;;;;;;;5043251;28;20274;-83
2022/02/11 15:30:34;;;;;;;1.63;1.40;;;;;;;;;;5056886;28;20666;-82
2022/02/11 15:33:02;;;;;;;6.13;1.65;;;;;;;;;;5041990;28;20217;-81
2022/02/11 15:35:30;;;;;;;5.45;2.53;;;;;;;;;;5049333;28;20234;-82
2022/02/11 15:38:00;;;;;;;1.90;1.70;;;;;;;;;;5061444;28;20235;-84
2022/02/11 15:40:29;;;;;;;2.85;1.23;;;;;;;;;;5041362;28;20237;-82
2022/02/11 15:42:57;;;;;;;3.95;1.40;;;;;;;;;;5042943;28;20264;-82
2022/02/11 15:45:25;;;;;;;2.55;1.90;;;;;;;;;;5042837;28;20648;-82
2022/02/11 15:47:52;;;;;;;2.80;1.33;;;;;;;;;;5042811;28;20202;-82
2022/02/11 15:50:19;;;;;;;1.30;1.20;;;;;;;;;;5042960;28;20202;-87
2022/02/11 15:52:48;;;;;;;2.60;1.70;;;;;;;;;;5061816;28;20201;-87
2022/02/11 15:55:17;;;;;;;2.65;1.25;;;;;;;;;;5045787;28;20266;-85
2022/02/11 15:57:44;;;;;;;4.07;1.80;;;;;;;;;;5041884;28;20214;-80
2022/02/11 16:00:14;;;;;;;1.85;1.05;;;;;;;;;;5053817;28;20205;-83
2022/02/11 16:02:41;;;;;;;4.78;1.27;;;;;;;;;;5042059;28;20650;-82
2022/02/11 16:05:10;;;;;;;3.70;1.58;;;;;;;;;;5044082;28;20213;-83
2022/02/11 16:07:38;;;;;;;2.67;2.35;;;;;;;;;;5044013;28;20202;-82
2022/02/11 16:10:07;;;;;;;1.40;1.30;;;;;;;;;;5039588;28;20234;-81
2022/02/11 16:12:36;;;;;;;1.75;1.20;;;;;;;;;;5042088;28;20213;-81
2022/02/11 16:15:04;;;;;;;3.22;1.45;;;;;;;;;;5057895;28;20209;-83
2022/02/11 16:17:32;;;;;;;3.33;1.27;;;;;;;;;;5058386;28;20681;-84
2022/02/11 16:20:05;;;;;;;2.42;1.33;;;;;;;;;;5057540;28;20210;-82
2022/02/11 16:22:32;;;;;;;2.05;1.35;;;;;;;;;;5057541;28;20217;-83
2022/02/11 16:24:59;;;;;;;3.70;2.28;;;;;;;;;;5056938;28;20217;-83
2022/02/11 16:27:27;;;;;;;5.53;2.00;;;;;;;;;;5057389;28;20237;-83
2022/02/11 16:29:56;;;;;;;6.57;1.75;;;;;;;;;;5056695;28;20680;-83
2022/02/11 16:32:23;;;;;;;1.98;1.75;;;;;;;;;;5057336;28;20282;-81
2022/02/11 16:34:50;;;;;;;2.80;1.88;;;;;;;;;;5056873;28;20206;-82
2022/02/11 16:37:18;;;;;;;3.83;2.35;;;;;;;;;;5037791;28;20362;-83
2022/02/11 16:39:45;;;;;;;2.15;1.50;;;;;;;;;;5037616;28;20236;-82
2022/02/11 16:42:12;;;;;;;3.92;2.20;;;;;;;;;;5037582;28;20217;-83
2022/02/11 16:44:39;;;;;;;4.32;1.60;;;;;;;;;;5037642;28;20205;-82
2022/02/11 16:47:09;;;;;;;4.75;2.03;;;;;;;;;;5038951;28;20636;-82
2022/02/11 16:49:36;;;;;;;7.25;1.70;;;;;;;;;;5040258;28;20651;-81
2022/02/11 16:52:06;;;;;;;4.75;1.45;;;;;;;;;;5041134;28;20297;-81
2022/02/11 16:54:34;;;;;;;5.20;1.92;;;;;;;;;;5055030;28;20204;-82
2022/02/11 16:57:01;;;;;;;3.10;2.17;;;;;;;;;;5043341;28;20645;-82
2022/02/11 16:59:28;;;;;;;2.53;1.70;;;;;;;;;;5042804;28;20210;-82
2022/02/11 17:01:56;;;;;;;3.55;1.95;;;;;;;;;;5059136;28;20938;-82
2022/02/11 17:04:24;;;;;;;2.85;1.77;;;;;;;;;;5059254;28;20666;-82
2022/02/11 17:06:51;;;;;;;7.63;1.50;;;;;;;;;;5039725;28;20288;-80
2022/02/11 17:09:19;;;;;;;6.30;2.38;;;;;;;;;;5040007;28;20206;-82
2022/02/11 17:11:46;;;;;;;4.95;2.22;;;;;;;;;;5043285;28;20260;-82
2022/02/11 17:14:13;;;;;;;2.72;1.92;;;;;;;;;;5043212;28;20212;-83
2022/02/11 17:16:41;;;;;;;3.70;1.65;;;;;;;;;;5043337;28;20586;-82
2022/02/11 17:19:08;;;;;;;5.45;2.30;;;;;;;;;;5042125;28;20206;-81
2022/02/11 17:21:37;;;;;;;3.30;2.45;;;;;;;;;;5041511;28;20245;-80
2022/02/11 17:24:08;;;;;;;5.95;3.55;;;;;;;;;;5046054;28;20695;-82
2022/02/11 17:26:35;;;;;;;7.40;2.08;;;;;;;;;;5041681;28;20607;-83
2022/02/11 17:29:04;;;;;;;5.70;2.15;;;;;;;;;;5042422;28;20270;-83
2022/02/11 17:31:31;;;;;;;7.30;3.00;;;;;;;;;;5061968;28;20213;-80
2022/02/11 17:33:58;;;;;;;9.00;3.30;;;;;;;;;;5055076;28;20206;-81
2022/02/11 17:36:25;;;;;;;2.95;2.20;;;;;;;;;;5056562;28;20255;-83
2022/02/11 17:38:54;;;;;;;2.03;1.45;;;;;;;;;;5060883;28;20206;-86
2022/02/11 17:41:23;;;;;;;3.70;2.45;;;;;;;;;;5061925;28;20193;-83
2022/02/11 17:43:51;;;;;;;14.57;6.13;;;;;;;;;;5059622;28;20201;-82
2022/02/11 17:46:18;;;;;;;7.18;3.53;;;;;;;;;;5058127;28;20232;-83
2022/02/11 17:48:47;;;;;;;6.88;3.38;;;;;;;;;;5059073;28;20214;-81
2022/02/11 17:51:14;;;;;;;10.13;5.38;;;;;;;;;;5057974;28;20217;-82
2022/02/11 17:53:43;;;;;;;5.32;3.15;;;;;;;;;;5057215;28;20206;-81
2022/02/11 17:56:12;;;;;;;5.53;2.50;;;;;;;;;;5045430;28;20305;-82
2022/02/11 17:58:39;;;;;;;3.63;2.00;;;;;;;;;;5040701;28;20210;-84